Time;durP1;ratioP1;P1;durP2;ratioP2;P2;SDS_P1;SDS_P2;PMS_P1;PMS_P2;Temp;Humidity;BMP_temperature;BMP_pressure;BME280_temperature;BME280_humidity;BME280_pressure;Samples;Min_cycle;Max_cycle;Signal;HPM_P1;HPM_P2
2022/10/15 00:01:09;;;;;;;9.40;2.33;;;;;;;14.45;61.38;101004.28;4976934;28;20024;-89
2022/10/15 00:03:37;;;;;;;15.50;2.63;;;;;;;14.15;61.30;100964.63;4957024;29;20085;-89
2022/10/15 00:06:04;;;;;;;11.75;3.05;;;;;;;14.10;61.66;100975.00;4957358;29;20102;-88
2022/10/15 00:08:30;;;;;;;38.00;4.40;;;;;;;14.35;61.57;101011.53;4957279;28;20053;-86
2022/10/15 00:11:01;;;;;;;9.13;2.45;;;;;;;14.33;61.91;101014.38;4955856;29;20035;-85
2022/10/15 00:13:27;;;;;;;121.40;7.90;;;;;;;13.93;61.82;100941.38;4955627;29;20039;-86
2022/10/15 00:15:52;;;;;;;8.07;1.88;;;;;;;14.52;61.81;101035.22;4955788;29;20314;-87
2022/10/15 00:18:18;;;;;;;4.30;1.83;;;;;;;14.50;61.76;101042.59;4957766;28;20031;-90
2022/10/15 00:20:43;;;;;;;7.70;2.55;;;;;;;14.34;61.87;101010.66;4957411;28;20023;-86
2022/10/15 00:23:09;;;;;;;7.03;2.53;;;;;;;14.39;61.92;101018.38;4957002;28;20031;-85
2022/10/15 00:25:35;;;;;;;6.35;1.95;;;;;;;14.30;61.45;100986.72;4957336;28;20035;-87
2022/10/15 00:28:00;;;;;;;5.22;2.45;;;;;;;14.14;61.64;100958.34;4956137;29;20035;-86
2022/10/15 00:30:26;;;;;;;8.68;2.60;;;;;;;13.93;61.75;100922.44;4956931;28;20395;-86
2022/10/15 00:32:51;;;;;;;10.82;3.28;;;;;;;14.04;61.64;100943.09;4957283;28;20399;-86
2022/10/15 00:35:17;;;;;;;10.00;2.47;;;;;;;14.52;61.67;101011.72;4957156;28;20035;-87
2022/10/15 00:37:43;;;;;;;6.20;2.08;;;;;;;14.14;61.54;100944.81;4956888;28;20058;-87
2022/10/15 00:40:10;;;;;;;6.68;2.38;;;;;;;14.24;61.05;100971.91;4957101;28;20078;-87
2022/10/15 00:42:36;;;;;;;7.70;2.28;;;;;;;14.22;61.54;100971.16;4957044;28;20067;-87
2022/10/15 00:45:01;;;;;;;5.97;2.40;;;;;;;14.34;61.61;100986.31;4958852;28;20030;-87
2022/10/15 00:47:38;;;;;;;5.43;2.78;;;;;;;14.11;61.92;100963.19;4937901;29;20322;-86
2022/10/15 00:50:05;;;;;;;20.33;3.45;;;;;;;14.51;62.18;101034.34;4937993;29;20063;-87
2022/10/15 00:52:41;;;;;;;14.18;2.20;;;;;;;13.62;62.18;100885.66;4924231;29;20058;-85
2022/10/15 00:55:13;;;;;;;13.52;2.60;;;;;;;14.11;62.57;100982.13;4939388;29;20031;-88
2022/10/15 00:57:39;;;;;;;11.95;3.17;;;;;;;14.34;62.52;101017.94;4935718;29;20144;-86
2022/10/15 01:03:26;;;;;;;49.45;5.07;;;;;;;14.23;62.35;101008.06;4939917;29;20106;-90
2022/10/15 01:05:52;;;;;;;22.35;4.88;;;;;;;13.64;62.58;100943.13;4942950;29;20039;-86
2022/10/15 01:08:18;;;;;;;10.73;3.08;;;;;;;13.19;62.98;100869.72;4941106;29;20078;-87
2022/10/15 01:11:26;;;;;;;12.70;2.35;;;;;;;13.38;63.01;100912.16;4948967;28;20051;-92
2022/10/15 01:14:21;;;;;;;4.45;2.58;;;;;;;13.22;63.31;100884.78;4862181;29;20041;-90
2022/10/15 01:16:49;;;;;;;13.27;4.13;;;;;;;13.36;63.58;100927.66;4860188;29;20089;-87
2022/10/15 01:19:35;;;;;;;70.82;7.88;;;;;;;14.02;63.73;101029.78;4856940;29;20033;-85
2022/10/15 01:22:08;;;;;;;9.88;4.20;;;;;;;13.90;63.91;101024.63;4878318;29;20537;-86
2022/10/15 01:24:33;;;;;;;;;;;;;;;14.00;63.94;101034.50;4878585;29;20044;-86
2022/10/15 01:27:05;;;;;;;23.67;3.05;;;;;;;13.92;64.35;101031.59;4877464;29;19920;-85
2022/10/15 01:29:42;;;;;;;6.60;2.80;;;;;;;13.93;64.51;101033.31;4877880;29;20456;-87
2022/10/15 01:32:27;;;;;;;10.48;3.40;;;;;;;13.91;64.52;101027.16;4877821;29;20093;-87
2022/10/15 01:35:04;;;;;;;10.02;3.40;;;;;;;13.90;64.40;101020.06;4862131;29;20040;-86
2022/10/15 01:37:32;;;;;;;5.95;2.40;;;;;;;13.93;64.10;101033.31;4858804;29;20494;-86
2022/10/15 01:40:01;;;;;;;13.45;3.05;;;;;;;13.08;63.90;100897.69;4858989;29;20033;-86
2022/10/15 01:42:37;;;;;;;12.43;2.97;;;;;;;13.28;64.09;100949.06;4858896;29;20046;-87
2022/10/15 01:45:11;;;;;;;7.05;2.67;;;;;;;13.78;64.13;101029.25;4858898;29;20805;-86
2022/10/15 01:47:49;;;;;;;66.57;6.25;;;;;;;13.45;64.23;100983.59;4858649;29;20030;-85
2022/10/15 01:50:17;;;;;;;49.10;5.80;;;;;;;13.31;64.49;100965.00;4929009;29;20090;-86
2022/10/15 01:52:43;;;;;;;18.77;3.10;;;;;;;13.24;64.65;100955.75;4935805;29;20030;-87
2022/10/15 01:55:13;;;;;;;8.07;2.80;;;;;;;13.09;65.07;100939.88;4950916;29;20126;-87
2022/10/15 01:57:41;;;;;;;19.08;3.53;;;;;;;13.19;65.19;100950.72;4936344;29;20034;-85
2022/10/15 02:00:07;;;;;;;14.18;4.72;;;;;;;13.00;65.70;100924.44;4935545;29;20091;-85
2022/10/15 02:02:33;;;;;;;8.60;3.75;;;;;;;12.93;65.97;100912.47;4936122;29;20027;-87
2022/10/15 02:04:59;;;;;;;27.05;4.90;;;;;;;13.03;66.19;100940.38;4951040;28;20403;-85
2022/10/15 02:07:53;;;;;;;22.40;4.05;;;;;;;12.87;66.68;100922.94;4934781;29;20035;-87
2022/10/15 02:10:56;;;;;;;13.00;3.25;;;;;;;13.53;66.98;101016.19;4936677;29;20127;-86
2022/10/15 02:13:40;;;;;;;15.35;5.10;;;;;;;12.72;67.06;100873.00;4935202;29;20028;-85
2022/10/15 02:16:17;;;;;;;13.60;5.13;;;;;;;12.76;67.69;100891.47;4936616;29;20050;-85
2022/10/15 02:18:55;;;;;;;11.80;4.28;;;;;;;13.34;67.90;100980.94;4937768;29;20126;-85
2022/10/15 02:21:36;;;;;;;14.40;3.45;;;;;;;12.70;68.35;100870.41;4940679;29;20032;-86
2022/10/15 02:24:01;;;;;;;65.05;7.95;;;;;;;13.61;68.58;101017.22;4941911;29;20103;-86
2022/10/15 02:26:29;;;;;;;18.25;4.15;;;;;;;13.61;68.78;101032.56;4953415;29;20011;-88
2022/10/15 02:28:58;;;;;;;11.85;4.53;;;;;;;13.11;68.47;100926.25;4958198;29;20052;-86
2022/10/15 02:31:25;;;;;;;104.55;8.90;;;;;;;12.84;68.66;100894.34;4954807;29;20027;-85
2022/10/15 02:33:59;;;;;;;41.25;5.07;;;;;;;13.46;68.17;100996.09;4938160;29;20036;-87
2022/10/15 02:36:25;;;;;;;78.53;8.07;;;;;;;13.00;68.34;100923.56;4936019;29;20028;-88
2022/10/15 02:38:53;;;;;;;13.02;4.00;;;;;;;13.51;68.31;101029.84;4950485;28;20034;-86
2022/10/15 02:41:19;;;;;;;14.25;4.25;;;;;;;12.57;68.68;100876.00;4935624;29;20036;-85
2022/10/15 02:43:46;;;;;;;37.70;5.57;;;;;;;12.92;68.23;100947.69;4934956;29;20475;-85
2022/10/15 02:46:14;;;;;;;9.38;3.70;;;;;;;12.52;68.39;100883.66;4935657;29;20053;-87
2022/10/15 02:48:40;;;;;;;24.45;5.53;;;;;;;12.85;68.43;100955.47;4935658;29;20070;-85
2022/10/15 02:51:06;;;;;;;18.80;4.53;;;;;;;12.70;68.11;100927.09;4935745;29;20075;-86
2022/10/15 02:53:31;;;;;;;12.35;5.07;;;;;;;12.69;67.98;100936.16;4935305;29;20031;-86
2022/10/15 02:55:57;;;;;;;17.17;4.53;;;;;;;12.90;67.68;100969.41;4934845;29;20118;-88
2022/10/15 02:58:23;;;;;;;19.02;5.20;;;;;;;12.98;67.43;100991.22;4934811;29;20031;-86
2022/10/15 03:00:49;;;;;;;10.60;4.40;;;;;;;12.98;67.20;100980.44;4949666;28;20083;-84
2022/10/15 03:03:15;;;;;;;21.08;6.60;;;;;;;13.09;67.58;101011.91;4934753;29;20035;-88
2022/10/15 03:05:42;;;;;;;14.50;4.72;;;;;;;12.66;67.51;100931.00;4935502;29;20083;-86
2022/10/15 03:08:07;;;;;;;11.20;5.55;;;;;;;12.40;67.55;100895.47;4935074;29;20107;-87
2022/10/15 03:10:33;;;;;;;15.65;4.70;;;;;;;12.53;67.79;100930.38;4946805;29;20118;-88
2022/10/15 03:13:05;;;;;;;16.42;5.63;;;;;;;12.72;67.28;100945.84;4955048;28;20135;-86
2022/10/15 03:15:31;;;;;;;23.02;5.78;;;;;;;12.93;67.34;100990.78;4955343;28;20495;-86
2022/10/15 03:17:56;;;;;;;28.23;6.22;;;;;;;12.68;67.57;100961.44;4955707;28;20147;-86
2022/10/15 03:20:22;;;;;;;11.23;5.35;;;;;;;13.08;67.45;101024.59;4956432;28;20034;-85
2022/10/15 03:22:48;;;;;;;21.48;8.02;;;;;;;12.20;67.57;100887.38;4958503;28;20054;-85
2022/10/15 03:25:14;;;;;;;33.15;7.30;;;;;;;12.68;67.88;100974.94;4960680;28;20848;-86
2022/10/15 03:27:39;;;;;;;17.10;5.75;;;;;;;12.74;68.41;100993.31;4957365;29;20034;-85
2022/10/15 03:30:06;;;;;;;27.77;7.80;;;;;;;12.33;68.66;100923.09;4956428;29;20043;-86
2022/10/15 03:32:31;;;;;;;22.63;6.55;;;;;;;12.48;69.06;100930.75;4955260;28;20390;-86
2022/10/15 03:34:56;;;;;;;18.00;6.93;;;;;;;12.48;69.40;100932.59;4962972;28;20027;-86
2022/10/15 03:37:22;;;;;;;21.70;6.45;;;;;;;12.99;69.54;101009.16;4964177;28;20041;-86
2022/10/15 03:39:48;;;;;;;13.98;5.60;;;;;;;13.01;69.50;101012.56;4964861;28;20027;-87
2022/10/15 03:42:13;;;;;;;13.88;7.57;;;;;;;13.17;69.90;101033.75;4974022;28;20087;-88
2022/10/15 03:44:39;;;;;;;25.95;7.85;;;;;;;12.73;69.78;100942.16;4976075;28;20050;-88
2022/10/15 03:47:04;;;;;;;36.20;7.15;;;;;;;12.82;70.21;100947.63;4976041;28;20039;-88
2022/10/15 03:49:30;;;;;;;19.85;7.97;;;;;;;12.62;70.11;100905.31;4919451;29;20047;-86
2022/10/15 03:51:56;;;;;;;22.00;6.13;;;;;;;13.24;70.57;100988.16;4941049;29;20103;-88
2022/10/15 03:54:21;;;;;;;16.48;7.13;;;;;;;12.78;70.97;100911.06;4920718;29;20228;-87
2022/10/15 03:56:47;;;;;;;26.08;10.73;;;;;;;13.18;71.67;100959.81;4932844;29;20032;-85
2022/10/15 03:59:12;;;;;;;22.00;9.55;;;;;;;12.77;72.06;100897.72;4916947;29;20059;-88
2022/10/15 04:01:38;;;;;;;30.42;7.95;;;;;;;13.11;72.28;100947.00;4932692;29;20047;-85
2022/10/15 04:04:06;;;;;;;33.63;7.65;;;;;;;13.16;73.39;100933.94;4932723;29;20038;-86
2022/10/15 04:06:33;;;;;;;27.92;7.93;;;;;;;13.14;73.66;100925.13;4932390;29;20035;-86
2022/10/15 04:08:59;;;;;;;16.13;8.05;;;;;;;13.69;74.07;101013.00;4931926;29;20044;-84
2022/10/15 04:11:24;;;;;;;26.13;7.40;;;;;;;13.29;74.42;100931.88;4915018;29;20034;-87
2022/10/15 04:13:50;;;;;;;17.08;7.82;;;;;;;13.91;74.41;101024.47;4931715;29;20439;-86
2022/10/15 04:16:16;;;;;;;29.23;8.23;;;;;;;13.59;74.70;100972.41;4916527;29;20412;-85
2022/10/15 04:18:42;;;;;;;21.88;8.68;;;;;;;13.09;74.32;100895.81;4931990;29;20047;-88
2022/10/15 04:21:08;;;;;;;24.90;7.93;;;;;;;13.04;74.59;100885.38;4932951;29;20047;-86
2022/10/15 04:23:34;;;;;;;14.85;7.60;;;;;;;12.96;74.31;100852.81;4934720;29;20483;-86
2022/10/15 04:26:02;;;;;;;14.18;8.70;;;;;;;13.03;73.81;100880.97;4937785;29;20031;-86
2022/10/15 04:28:28;;;;;;;33.90;9.93;;;;;;;13.31;73.56;100916.38;4954039;29;20082;-82
2022/10/15 04:30:57;;;;;;;17.40;9.20;;;;;;;13.75;73.45;100980.88;4953557;29;20031;-82
2022/10/15 04:33:23;;;;;;;22.55;8.00;;;;;;;13.75;73.22;100997.09;4953049;29;20035;-83
2022/10/15 04:36:00;;;;;;;24.00;10.02;;;;;;;13.36;73.33;100949.28;4952855;29;20129;-82
2022/10/15 04:38:25;;;;;;;47.78;12.82;;;;;;;13.46;73.53;100967.22;4953643;29;20070;-83
2022/10/15 04:41:03;;;;;;;52.28;10.98;;;;;;;13.48;73.71;100975.22;4953388;29;20070;-83
2022/10/15 04:43:29;;;;;;;20.13;8.43;;;;;;;13.19;73.48;100912.91;4954243;29;20043;-84
2022/10/15 04:45:59;;;;;;;18.38;7.97;;;;;;;13.73;73.10;100999.06;4955181;29;20035;-81
2022/10/15 04:48:27;;;;;;;27.63;8.00;;;;;;;13.37;72.81;100930.22;4955073;29;20043;-82
2022/10/15 04:50:52;;;;;;;26.17;8.70;;;;;;;13.97;73.01;101023.94;4957226;28;20130;-82
2022/10/15 04:53:19;;;;;;;19.67;7.93;;;;;;;14.03;72.89;101027.94;4957495;28;20054;-81
2022/10/15 04:55:45;;;;;;;36.63;9.38;;;;;;;13.78;72.34;100975.19;4961040;29;20066;-91
2022/10/15 04:58:10;;;;;;;21.25;7.45;;;;;;;13.63;72.40;100954.94;4978455;28;20031;-90
2022/10/15 05:00:37;;;;;;;23.33;7.43;;;;;;;14.06;72.28;101022.25;4978445;28;20027;-91
2022/10/15 05:03:07;;;;;;;21.40;7.32;;;;;;;13.85;72.08;100970.09;4973867;28;20031;-84
2022/10/15 05:05:32;;;;;;;14.82;6.78;;;;;;;14.00;71.78;100996.63;4960485;28;20491;-85
2022/10/15 05:08:01;;;;;;;33.05;9.05;;;;;;;14.05;71.60;101001.59;4960781;29;20035;-84
2022/10/15 05:10:27;;;;;;;24.10;7.85;;;;;;;13.75;71.72;100953.84;4958384;29;20050;-85
2022/10/15 05:12:53;;;;;;;29.23;7.78;;;;;;;14.01;71.63;100975.81;4959207;29;20042;-84
2022/10/15 05:15:18;;;;;;;18.85;6.95;;;;;;;14.40;71.26;101025.50;4959029;28;20109;-84
2022/10/15 05:17:44;;;;;;;34.17;8.65;;;;;;;13.50;71.09;100879.50;4959483;28;20026;-86
2022/10/15 05:20:10;;;;;;;27.92;7.35;;;;;;;13.68;70.86;100876.13;4959128;28;20102;-85
2022/10/15 05:22:35;;;;;;;52.13;8.77;;;;;;;14.53;70.98;101002.59;4956160;29;20033;-80
2022/10/15 05:25:01;;;;;;;93.30;12.55;;;;;;;14.25;70.64;100943.81;4957045;28;20031;-83
2022/10/15 05:27:26;;;;;;;290.15;30.55;;;;;;;14.56;70.02;100987.91;4959108;29;20046;-91
2022/10/15 05:29:52;;;;;;;26.88;7.07;;;;;;;14.92;70.26;101022.41;4958011;29;20035;-83
2022/10/15 05:32:17;;;;;;;32.10;7.78;;;;;;;14.71;70.29;101000.03;4957492;29;20027;-83
2022/10/15 05:34:42;;;;;;;18.35;6.32;;;;;;;14.97;69.63;101025.56;4954575;28;20031;-84
2022/10/15 05:37:08;;;;;;;30.88;6.55;;;;;;;14.73;69.41;100994.47;4957682;28;20027;-81
2022/10/15 05:39:33;;;;;;;51.58;9.25;;;;;;;15.10;69.52;101042.38;4955440;28;20646;-79
2022/10/15 05:41:59;;;;;;;22.52;6.30;;;;;;;15.11;69.09;101038.66;4954953;29;20066;-82
2022/10/15 05:44:24;;;;;;;33.75;6.43;;;;;;;14.89;69.28;100994.78;4955345;28;20038;-80
2022/10/15 05:46:50;;;;;;;19.05;5.95;;;;;;;15.11;68.73;101046.78;4955970;28;20038;-82
2022/10/15 05:49:15;;;;;;;35.67;6.60;;;;;;;14.97;68.27;100998.47;4957458;28;20035;-80
2022/10/15 05:51:43;;;;;;;29.27;7.13;;;;;;;14.68;68.44;100960.56;4957662;28;20039;-83
2022/10/15 05:54:09;;;;;;;32.95;6.15;;;;;;;14.65;68.25;100950.00;4933868;29;20043;-81
2022/10/15 05:56:34;;;;;;;22.77;6.25;;;;;;;15.26;68.51;101037.19;4932450;29;20400;-82
2022/10/15 05:59:00;;;;;;;13.43;5.78;;;;;;;15.05;67.78;100998.59;4918343;29;20420;-81
2022/10/15 06:01:25;;;;;;;23.98;7.13;;;;;;;15.33;67.79;101025.78;4918280;29;20040;-81
2022/10/15 06:03:51;;;;;;;19.98;6.80;;;;;;;15.35;67.51;101037.34;4935554;29;20063;-80
2022/10/15 06:06:22;;;;;;;28.60;5.97;;;;;;;15.29;67.40;101006.25;4935690;29;20043;-82
2022/10/15 06:08:48;;;;;;;27.05;6.28;;;;;;;15.35;67.03;101023.81;4935588;29;20035;-81
2022/10/15 06:11:14;;;;;;;40.65;6.63;;;;;;;15.39;66.78;101025.19;4941925;29;20058;-83
2022/10/15 06:13:41;;;;;;;19.45;6.43;;;;;;;15.54;66.64;101050.88;4953965;29;20046;-84
2022/10/15 06:16:07;;;;;;;52.95;6.90;;;;;;;15.50;66.65;101035.94;4937942;29;20087;-86
2022/10/15 06:18:33;;;;;;;117.63;12.50;;;;;;;15.41;66.67;101010.50;4949727;28;20094;-84
2022/10/15 06:20:58;;;;;;;73.22;7.70;;;;;;;15.41;66.77;101017.78;4955114;29;20027;-83
2022/10/15 06:23:23;;;;;;;35.60;7.00;;;;;;;15.48;66.73;101019.78;4954368;28;20027;-79
2022/10/15 06:25:49;;;;;;;35.78;5.78;;;;;;;15.58;66.33;101025.19;4956806;28;20035;-80
2022/10/15 06:28:15;;;;;;;24.95;6.13;;;;;;;15.61;66.54;101036.59;4954046;29;20461;-82
2022/10/15 06:30:42;;;;;;;21.73;5.55;;;;;;;15.37;66.05;100986.56;4956087;28;20061;-84
2022/10/15 06:33:08;;;;;;;72.15;8.18;;;;;;;15.81;66.18;101058.25;4946744;28;20032;-82
2022/10/15 06:35:34;;;;;;;42.42;6.28;;;;;;;15.69;65.89;101038.56;4934113;29;20031;-79
2022/10/15 06:38:04;;;;;;;23.55;5.95;;;;;;;15.83;65.70;101062.50;4934643;29;20051;-79
2022/10/15 06:40:31;;;;;;;14.98;5.72;;;;;;;15.93;65.44;101065.19;4935233;29;20122;-85
2022/10/15 06:43:04;;;;;;;43.20;6.63;;;;;;;15.59;65.09;100999.78;4936289;29;20034;-80
2022/10/15 06:45:30;;;;;;;96.43;9.40;;;;;;;15.92;64.58;101056.19;4931972;29;20042;-80
2022/10/15 06:47:56;;;;;;;24.70;5.88;;;;;;;16.21;64.12;101088.63;4932501;29;20047;-90
2022/10/15 06:50:22;;;;;;;25.55;5.70;;;;;;;16.26;63.79;101094.47;4934324;29;20496;-84
2022/10/15 06:52:47;;;;;;;57.55;7.22;;;;;;;16.01;63.56;101043.59;4935992;29;20076;-89
2022/10/15 06:55:13;;;;;;;20.08;6.25;;;;;;;16.29;63.57;101076.03;4934477;29;20075;-90
2022/10/15 06:57:38;;;;;;;29.80;6.22;;;;;;;16.45;62.88;101090.81;4935784;29;20129;-86
2022/10/15 07:00:07;;;;;;;25.05;6.38;;;;;;;16.47;62.38;101081.50;4934957;29;20131;-85
2022/10/15 07:02:35;;;;;;;19.70;5.05;;;;;;;16.39;62.68;101048.81;4918452;29;20499;-90
2022/10/15 07:05:00;;;;;;;24.50;5.22;;;;;;;16.59;61.77;101072.16;4936030;29;20046;-92
2022/10/15 07:07:26;;;;;;;183.45;16.77;;;;;;;16.39;61.69;101026.25;4921329;29;20539;-88
2022/10/15 07:09:54;;;;;;;59.97;8.15;;;;;;;16.82;61.15;101088.88;4935917;29;20509;-89
2022/10/15 07:12:22;;;;;;;21.00;5.45;;;;;;;16.38;60.53;101008.25;4936764;29;20067;-90
2022/10/15 07:14:50;;;;;;;47.38;7.53;;;;;;;16.93;60.39;101094.09;4938781;29;20104;-92
2022/10/15 07:17:16;;;;;;;27.42;5.63;;;;;;;16.48;60.25;100998.19;4944446;29;20035;-89
2022/10/15 07:19:42;;;;;;;30.55;5.90;;;;;;;17.10;59.92;101095.09;4955130;29;20059;-87
2022/10/15 07:22:08;;;;;;;18.10;5.28;;;;;;;16.88;59.74;101050.22;4958420;29;20182;-93
2022/10/15 07:24:34;;;;;;;24.48;5.05;;;;;;;16.98;58.50;101044.69;4972450;28;20054;-89
2022/10/15 07:26:59;;;;;;;65.50;7.55;;;;;;;17.07;58.26;101062.78;4975985;28;20267;-89
2022/10/15 07:29:25;;;;;;;35.20;5.72;;;;;;;17.27;58.33;101110.56;4976410;28;20083;-89
2022/10/15 07:31:51;;;;;;;21.88;5.78;;;;;;;17.31;58.59;101091.03;4972743;28;20086;-87
2022/10/15 07:34:16;;;;;;;39.95;5.88;;;;;;;17.01;57.57;101047.09;4959729;28;20415;-88
2022/10/15 07:36:42;;;;;;;177.02;11.23;;;;;;;17.45;57.44;101083.34;4956534;29;20044;-84
2022/10/15 07:39:08;;;;;;;26.27;4.85;;;;;;;17.19;56.94;101026.19;4955662;28;20027;-85
2022/10/15 07:41:33;;;;;;;16.27;4.97;;;;;;;17.19;56.64;101015.31;4955055;28;20028;-84
2022/10/15 07:43:59;;;;;;;54.22;6.93;;;;;;;17.21;55.74;101008.75;4956788;28;20054;-81
2022/10/15 07:46:25;;;;;;;19.83;6.95;;;;;;;17.57;55.10;101071.22;4953833;28;20023;-88
2022/10/15 07:48:51;;;;;;;57.22;7.85;;;;;;;17.75;54.68;101069.31;4953220;29;20141;-85
2022/10/15 07:51:16;;;;;;;17.05;5.57;;;;;;;17.78;54.55;101055.38;4955479;28;20056;-87
2022/10/15 07:53:43;;;;;;;121.70;10.38;;;;;;;17.99;54.35;101079.50;4954336;29;20027;-85
2022/10/15 07:56:11;;;;;;;27.52;5.75;;;;;;;18.20;53.58;101094.41;4955667;28;20043;-88
2022/10/15 07:58:37;;;;;;;43.70;7.90;;;;;;;18.10;53.78;101068.34;4956639;29;20055;-85
2022/10/15 08:01:05;;;;;;;85.60;11.30;;;;;;;18.40;53.47;101112.22;4958359;28;20035;-83
2022/10/15 08:03:30;;;;;;;110.45;10.77;;;;;;;18.21;52.83;101062.59;4958092;28;20111;-87
2022/10/15 08:05:59;;;;;;;428.05;30.13;;;;;;;18.32;52.80;101108.59;4956691;29;20070;-81
2022/10/15 08:08:25;;;;;;;43.72;6.50;;;;;;;18.36;53.03;101099.94;4955926;28;20034;-85
2022/10/15 08:10:50;;;;;;;52.67;6.55;;;;;;;18.37;52.49;101106.25;4958093;29;20117;-82
2022/10/15 08:13:16;;;;;;;26.33;6.07;;;;;;;18.44;52.13;101097.25;4957848;28;20031;-83
2022/10/15 08:15:41;;;;;;;49.05;6.55;;;;;;;18.37;50.81;101077.16;4956230;29;20546;-81
2022/10/15 08:18:08;;;;;;;25.38;8.63;;;;;;;18.10;49.65;101028.38;4956764;28;20051;-81
2022/10/15 08:20:36;;;;;;;17.58;7.05;;;;;;;18.46;49.50;101078.88;4956739;28;20019;-82
2022/10/15 08:23:01;;;;;;;21.17;7.95;;;;;;;18.68;49.40;101109.28;4957127;28;20028;-85
2022/10/15 08:25:28;;;;;;;25.27;10.38;;;;;;;18.66;47.91;101070.44;4957473;28;20431;-85
2022/10/15 08:27:53;;;;;;;62.72;13.75;;;;;;;18.65;47.02;101077.78;4957478;28;20027;-84
2022/10/15 08:30:19;;;;;;;54.40;11.32;;;;;;;18.20;46.75;101018.16;4958414;29;20035;-82
2022/10/15 08:32:44;;;;;;;45.92;9.18;;;;;;;18.71;46.44;101092.63;4960175;29;20479;-83
2022/10/15 08:35:10;;;;;;;15.07;7.93;;;;;;;18.74;46.06;101103.19;4943853;29;20067;-83
2022/10/15 08:37:36;;;;;;;42.90;9.13;;;;;;;18.87;45.63;101109.84;4961027;28;20020;-89
2022/10/15 08:40:03;;;;;;;39.08;9.05;;;;;;;18.26;45.19;101006.63;4964356;28;20046;-88
2022/10/15 08:42:38;;;;;;;37.38;10.32;;;;;;;18.65;45.48;101044.22;4965031;28;20027;-90
2022/10/15 08:45:27;;;;;;;33.15;6.68;;;;;;;19.06;44.80;101119.59;4977556;28;21371;-86
2022/10/15 08:48:10;;;;;;;29.98;6.85;;;;;;;18.85;45.40;101057.38;4957702;29;20479;-84
2022/10/15 08:50:58;;;;;;;51.05;8.18;;;;;;;18.66;45.56;101005.06;4957879;28;20126;-87
2022/10/15 08:53:25;;;;;;;20.80;6.53;;;;;;;19.32;45.45;101100.38;4954728;28;20050;-82
2022/10/15 08:55:55;;;;;;;21.25;8.20;;;;;;;19.40;45.29;101095.81;4955921;28;20035;-87
2022/10/15 08:58:42;;;;;;;29.00;6.05;;;;;;;19.62;45.30;101124.28;4950958;28;20049;-83
2022/10/15 09:01:14;;;;;;;31.50;5.43;;;;;;;19.65;45.75;101112.19;4955253;29;20110;-84
2022/10/15 09:03:51;;;;;;;63.93;7.90;;;;;;;19.70;45.93;101134.34;4955690;28;20098;-86
2022/10/15 09:06:29;;;;;;;50.92;6.57;;;;;;;19.09;46.19;101022.97;4958013;29;20023;-88
2022/10/15 09:09:06;;;;;;;64.88;7.15;;;;;;;19.74;46.46;101133.84;4962593;28;20071;-86
2022/10/15 09:11:57;;;;;;;40.22;5.63;;;;;;;19.72;46.89;101122.25;4963361;29;20035;-88
2022/10/15 09:14:27;;;;;;;30.58;5.40;;;;;;;19.65;47.73;101117.63;4962138;29;20054;-85
2022/10/15 09:16:53;;;;;;;14.02;3.83;;;;;;;19.32;49.23;101082.16;4961678;29;20027;-90
2022/10/15 09:19:21;;;;;;;22.08;4.15;;;;;;;19.76;51.31;101134.50;4959540;29;20048;-85
2022/10/15 09:21:48;;;;;;;457.88;35.78;;;;;;;19.07;53.66;101076.84;4959421;29;20078;-88
2022/10/15 09:24:27;;;;;;;17.65;3.60;;;;;;;19.16;53.72;101142.13;4961034;28;20063;-88
2022/10/15 09:27:08;;;;;;;91.78;8.10;;;;;;;19.14;54.23;101159.69;4957566;29;20031;-84
2022/10/15 09:29:47;;;;;;;35.67;5.43;;;;;;;18.99;54.49;101119.41;4953503;29;20510;-82
2022/10/15 09:32:19;;;;;;;146.27;12.20;;;;;;;19.00;54.52;101120.28;4953845;28;20058;-83
2022/10/15 09:34:49;;;;;;;44.03;6.68;;;;;;;19.33;54.06;101170.25;4954951;29;20047;-82
2022/10/15 09:37:22;;;;;;;40.90;4.95;;;;;;;19.28;53.84;101168.06;4956123;28;20525;-82
2022/10/15 09:40:09;;;;;;;86.20;7.60;;;;;;;19.20;54.79;101156.28;4938673;29;20126;-86
2022/10/15 09:42:41;;;;;;;18.95;3.85;;;;;;;19.27;54.72;101149.97;4943659;29;20491;-83
2022/10/15 09:45:11;;;;;;;;;;;;;;;19.32;54.46;101160.41;4951326;29;20035;-81
2022/10/15 09:47:40;;;;;;;55.15;8.07;;;;;;;19.16;54.11;101109.41;4961224;29;19951;-87
2022/10/15 09:50:11;;;;;;;171.68;16.20;;;;;;;19.49;52.79;101146.63;4964058;28;20131;-85
2022/10/15 09:53:10;;;;;;;47.28;5.00;;;;;;;19.39;52.74;101139.59;4961160;28;20082;-85
2022/10/15 09:55:41;;;;;;;13.80;4.05;;;;;;;19.37;53.14;101161.59;4976286;28;20055;-87
2022/10/15 09:58:37;;;;;;;34.67;4.22;;;;;;;19.39;53.86;101159.56;4977138;28;20030;-90
2022/10/15 10:01:07;;;;;;;55.72;6.43;;;;;;;18.90;53.90;101065.03;4933693;29;20067;-86
2022/10/15 10:03:34;;;;;;;29.98;5.28;;;;;;;19.31;53.94;101132.25;4915555;29;20036;-85
2022/10/15 10:06:07;;;;;;;44.67;4.53;;;;;;;19.39;53.56;101159.56;4916043;29;20044;-86
2022/10/15 10:08:46;;;;;;;73.90;6.32;;;;;;;18.82;52.84;101073.22;4920576;29;20071;-86
2022/10/15 10:11:12;;;;;;;13.77;3.55;;;;;;;19.23;52.89;101145.91;4917704;29;20461;-87
2022/10/15 10:13:49;;;;;;;29.70;5.35;;;;;;;19.38;53.04;101171.50;4917780;29;20039;-85
2022/10/15 10:16:18;;;;;;;54.60;5.85;;;;;;;18.62;53.20;101036.41;4920193;29;20044;-86
2022/10/15 10:18:59;;;;;;;209.13;13.65;;;;;;;18.88;53.17;101084.31;4901536;29;20072;-83
2022/10/15 10:21:31;;;;;;;33.42;6.45;;;;;;;19.02;53.54;101102.72;4916963;29;20055;-83
2022/10/15 10:24:29;;;;;;;79.93;5.78;;;;;;;19.46;53.56;101152.44;4915794;29;20111;-82
2022/10/15 10:27:00;;;;;;;53.40;7.88;;;;;;;19.35;53.13;101114.53;4920188;29;20039;-84
2022/10/15 10:29:50;;;;;;;;;;;;;;;;;;;;;
2022/10/15 10:32:22;;;;;;;6.07;3.30;;;;;;;19.19;53.18;101094.56;4917743;29;20619;-81
2022/10/15 10:34:54;;;;;;;33.75;4.70;;;;;;;19.41;53.64;101151.25;4920783;29;20115;-87
2022/10/15 10:37:21;;;;;;;20.20;3.65;;;;;;;19.23;53.20;101143.19;4931927;29;20054;-87
2022/10/15 10:39:52;;;;;;;26.83;4.00;;;;;;;19.42;52.74;101170.16;4958825;28;20522;-88
2022/10/15 10:42:57;;;;;;;51.60;4.85;;;;;;;19.47;52.40;101173.25;4959495;28;20031;-85
2022/10/15 10:45:30;;;;;;;8.18;3.35;;;;;;;19.45;52.54;101163.50;4951655;29;20495;-85
2022/10/15 10:47:59;;;;;;;23.08;3.75;;;;;;;18.90;52.59;101070.50;4940175;29;20153;-85
2022/10/15 10:50:29;;;;;;;15.73;3.28;;;;;;;19.13;52.32;101093.38;4954949;29;20050;-87
2022/10/15 10:52:56;;;;;;;76.88;7.53;;;;;;;19.58;51.62;101174.78;4957969;29;20031;-86
2022/10/15 10:55:39;;;;;;;22.60;3.50;;;;;;;18.51;51.10;101018.47;4960058;29;20452;-85
2022/10/15 10:58:14;;;;;;;17.10;3.88;;;;;;;19.02;51.66;101134.59;4958561;29;20034;-87
2022/10/15 11:00:47;;;;;;;43.67;5.25;;;;;;;18.99;51.83;101119.41;4960022;28;20114;-82
2022/10/15 11:03:19;;;;;;;52.03;4.03;;;;;;;19.19;51.71;101160.88;4963924;29;20514;-83
2022/10/15 11:05:48;;;;;;;100.93;8.60;;;;;;;19.11;51.50;101109.03;4941441;29;20035;-85
2022/10/15 11:08:52;;;;;;;139.52;13.43;;;;;;;18.75;50.48;101034.88;4945174;29;20032;-90
2022/10/15 11:11:50;;;;;;;31.98;6.65;;;;;;;19.81;50.13;101153.97;4977786;28;20060;-90
2022/10/15 11:14:46;;;;;;;47.78;5.43;;;;;;;19.85;49.33;101149.84;4902669;29;20024;-90
2022/10/15 11:17:26;;;;;;;40.83;7.55;;;;;;;19.93;49.25;101152.59;4884726;29;20047;-86
2022/10/15 11:20:14;;;;;;;28.10;3.42;;;;;;;19.91;48.44;101148.31;4886744;29;20083;-88
2022/10/15 11:23:01;;;;;;;57.45;4.60;;;;;;;19.84;48.47;101152.78;4901262;29;20530;-85
2022/10/15 11:25:45;;;;;;;124.97;11.05;;;;;;;19.57;48.32;101090.38;4901073;29;20037;-85
2022/10/15 11:28:42;;;;;;;19.85;3.47;;;;;;;18.95;48.85;101062.69;4899799;29;20113;-86
2022/10/15 11:31:28;;;;;;;110.00;9.52;;;;;;;18.89;48.81;101036.09;4884818;29;20440;-85
2022/10/15 11:34:05;;;;;;;17.48;4.25;;;;;;;19.65;48.56;101145.78;4904570;29;20037;-84
2022/10/15 11:36:50;;;;;;;23.20;4.22;;;;;;;19.05;48.79;101078.91;4882621;29;20052;-82